createdAt,value
2023-11-07T00:02:28.916Z,6.39
2023-11-07T00:07:32.718Z,6.31
2023-11-07T00:12:36.642Z,6.30
2023-11-07T00:17:41.810Z,6.16
2023-11-07T00:22:45.744Z,6.25
2023-11-07T00:27:49.795Z,6.17
2023-11-07T00:32:55.290Z,6.06
2023-11-07T00:38:00.498Z,6.14
2023-11-07T00:43:04.864Z,6.14
2023-11-07T00:48:10.122Z,6.01
2023-11-07T00:53:14.228Z,6.05
2023-11-07T00:58:17.931Z,6.08
2023-11-07T01:03:23.392Z,6.17
2023-11-07T01:08:27.360Z,6.20
2023-11-07T01:13:31.069Z,6.04
2023-11-07T01:18:36.266Z,6.19
2023-11-07T01:23:40.111Z,6.23
2023-11-07T01:28:43.791Z,6.01
2023-11-07T01:33:49.036Z,6.01
2023-11-07T01:38:54.627Z,5.99
2023-11-07T01:43:58.579Z,5.97
2023-11-07T01:49:04.247Z,5.95
2023-11-07T01:54:09.686Z,5.69
2023-11-07T01:59:13.526Z,5.63
2023-11-07T02:04:20.144Z,5.82
2023-11-07T02:09:24.432Z,5.73
2023-11-07T02:14:29.236Z,5.66
2023-11-07T02:19:35.018Z,5.70
2023-11-07T02:24:40.380Z,5.74
2023-11-07T02:29:44.148Z,5.66
2023-11-07T02:34:47.805Z,5.65
2023-11-07T02:39:52.806Z,5.72
2023-11-07T02:44:56.905Z,5.74
2023-11-07T02:50:00.731Z,5.63
2023-11-07T02:55:07.445Z,5.56
2023-11-07T03:00:14.159Z,5.54
2023-11-07T03:05:18.013Z,5.53
2023-11-07T03:10:23.042Z,5.49
2023-11-07T03:15:26.690Z,5.49
2023-11-07T03:20:30.294Z,5.40
2023-11-07T03:25:35.391Z,5.41
2023-11-07T03:30:39.098Z,5.40
2023-11-07T03:35:42.857Z,5.40
2023-11-07T03:40:48.246Z,5.35
2023-11-07T03:45:52.044Z,5.32
2023-11-07T03:50:55.689Z,5.29
2023-11-07T03:56:01.060Z,5.36
2023-11-07T04:01:05.361Z,5.27
2023-11-07T04:06:10.047Z,5.37
2023-11-07T04:11:16.113Z,5.21
2023-11-07T04:16:20.300Z,5.18
2023-11-07T04:21:24.153Z,5.32
2023-11-07T04:26:29.730Z,5.29
2023-11-07T04:31:34.299Z,5.20
2023-11-07T04:36:41.460Z,5.16
2023-11-07T04:41:47.650Z,5.19
2023-11-07T04:46:51.393Z,5.08
2023-11-07T04:51:56.540Z,5.26
2023-11-07T04:57:01.643Z,5.14
2023-11-07T05:02:07.603Z,5.04
2023-11-07T05:07:11.831Z,5.07
2023-11-07T05:12:16.949Z,4.98
2023-11-07T05:17:22.200Z,4.94
2023-11-07T05:22:25.992Z,4.93
2023-11-07T05:27:31.147Z,4.89
2023-11-07T05:32:34.794Z,4.97
2023-11-07T05:37:38.421Z,4.87
2023-11-07T05:42:43.757Z,5.05
2023-11-07T05:47:47.940Z,4.94
2023-11-07T05:52:51.730Z,4.96
2023-11-07T05:57:56.757Z,4.93
2023-11-07T06:03:00.665Z,4.98
2023-11-07T06:08:04.621Z,4.97
2023-11-07T06:13:10.047Z,4.99
2023-11-07T06:18:15.416Z,5.00
2023-11-07T06:23:19.614Z,4.97
2023-11-07T06:28:24.701Z,4.98
2023-11-07T06:33:28.991Z,4.97
2023-11-07T06:38:32.717Z,5.07
2023-11-07T06:43:37.785Z,5.22
2023-11-07T06:48:41.576Z,5.32
2023-11-07T06:53:45.929Z,5.40
2023-11-07T06:58:50.896Z,5.43
2023-11-07T07:03:55.216Z,5.51
2023-11-07T07:08:58.956Z,5.57
2023-11-07T07:14:04.910Z,5.60
2023-11-07T07:19:09.734Z,5.62
2023-11-07T07:24:20.806Z,5.68
2023-11-07T07:29:27.386Z,5.78
2023-11-07T07:34:31.078Z,5.81
2023-11-07T07:39:36.617Z,5.75
2023-11-07T07:44:43.237Z,6.08
2023-11-07T07:49:47.542Z,5.99
2023-11-07T07:55:06.832Z,6.05
2023-11-07T08:00:17.252Z,6.12
2023-11-07T08:05:22.063Z,6.17
2023-11-07T08:10:27.912Z,6.30
2023-11-07T08:15:33.008Z,6.54
2023-11-07T08:20:38.177Z,6.84
2023-11-07T08:25:42.340Z,7.20
2023-11-07T08:30:47.756Z,7.44
2023-11-07T08:35:51.658Z,7.68
2023-11-07T08:40:55.518Z,7.60
2023-11-07T08:46:01.538Z,8.02
2023-11-07T08:51:05.934Z,8.23
2023-11-07T08:56:10.416Z,8.24
2023-11-07T09:01:15.939Z,8.46
2023-11-07T09:06:20.988Z,8.39
2023-11-07T09:11:25.234Z,8.51
2023-11-07T09:16:30.398Z,8.44
2023-11-07T09:21:34.110Z,8.54
2023-11-07T09:26:37.825Z,8.65
2023-11-07T09:31:43.034Z,8.87
2023-11-07T09:36:46.903Z,8.70
2023-11-07T09:41:50.621Z,8.82
2023-11-07T09:46:58.989Z,8.86
2023-11-07T09:52:07.034Z,8.68
2023-11-07T09:57:10.998Z,8.83
2023-11-07T10:02:16.329Z,8.96
2023-11-07T10:07:20.133Z,9.07
2023-11-07T10:12:23.828Z,9.28
2023-11-07T10:17:28.872Z,9.28
2023-11-07T10:22:44.607Z,9.38
2023-11-07T10:27:48.605Z,9.40
2023-11-07T10:32:57.293Z,9.19
2023-11-07T10:38:01.072Z,9.34
2023-11-07T10:43:04.964Z,9.36
2023-11-07T10:48:10.958Z,9.35
2023-11-07T10:53:17.602Z,9.65
2023-11-07T10:58:22.309Z,9.72
2023-11-07T11:03:29.607Z,9.99
2023-11-07T11:08:36.046Z,9.74
2023-11-07T11:13:42.819Z,9.81
2023-11-07T11:18:57.691Z,10.01
2023-11-07T11:24:06.729Z,10.04
2023-11-07T11:29:34.040Z,10.43
2023-11-07T11:34:40.905Z,10.40
2023-11-07T11:39:49.244Z,9.98
2023-11-07T11:45:40.254Z,9.78
2023-11-07T11:50:50.122Z,9.35
2023-11-07T11:56:13.099Z,9.30
2023-11-07T12:01:18.633Z,9.14
2023-11-07T12:06:25.875Z,9.39
2023-11-07T12:11:40.737Z,9.32
2023-11-07T12:16:57.758Z,9.30
2023-11-07T12:22:02.977Z,9.34
2023-11-07T12:27:07.054Z,9.53
2023-11-07T12:32:21.208Z,9.68
2023-11-07T12:37:26.447Z,9.77
2023-11-07T12:42:30.663Z,9.94
2023-11-07T12:47:34.825Z,9.90
2023-11-07T12:52:43.750Z,9.96
2023-11-07T12:57:52.242Z,9.70
2023-11-07T13:02:57.783Z,9.85
2023-11-07T13:08:03.854Z,10.00
2023-11-07T13:13:07.882Z,9.79
2023-11-07T13:18:16.081Z,9.41
2023-11-07T13:23:21.339Z,9.57
2023-11-07T13:28:26.683Z,9.73
2023-11-07T13:33:32.303Z,9.72
2023-11-07T13:38:37.515Z,9.61
2023-11-07T13:43:41.838Z,9.56
2023-11-07T13:48:46.165Z,9.45
2023-11-07T13:53:52.938Z,9.35
2023-11-07T13:58:58.529Z,9.45
2023-11-07T14:04:07.657Z,9.57
2023-11-07T14:09:13.124Z,9.49
2023-11-07T14:14:18.565Z,9.58
2023-11-07T14:19:23.584Z,9.45
2023-11-07T14:24:28.771Z,9.27
2023-11-07T14:29:47.454Z,9.25
2023-11-07T14:34:56.218Z,9.08
2023-11-07T14:40:01.364Z,9.09
2023-11-07T14:45:10.408Z,9.06
2023-11-07T14:50:15.055Z,8.81
2023-11-07T14:55:20.977Z,8.79
2023-11-07T15:00:28.786Z,8.80
2023-11-07T15:05:36.004Z,8.66
2023-11-07T15:10:50.138Z,8.67
2023-11-07T15:15:58.911Z,8.54
2023-11-07T15:21:05.228Z,8.38
2023-11-07T15:26:10.526Z,8.34
2023-11-07T15:31:16.468Z,8.35
2023-11-07T15:36:20.593Z,8.28
2023-11-07T15:41:26.427Z,8.31
2023-11-07T15:46:30.077Z,8.15
2023-11-07T15:51:35.151Z,7.94
2023-11-07T15:56:40.259Z,7.84
2023-11-07T16:01:43.922Z,7.66
2023-11-07T16:06:49.937Z,7.61
2023-11-07T16:11:55.087Z,7.60
2023-11-07T16:16:59.075Z,7.49
2023-11-07T16:22:03.169Z,7.42
2023-11-07T16:27:09.822Z,7.24
2023-11-07T16:32:13.786Z,7.32
2023-11-07T16:37:18.680Z,7.11
2023-11-07T16:42:25.060Z,6.91
2023-11-07T16:47:29.605Z,7.08
2023-11-07T21:02:53.186Z,5.33
2023-11-07T21:07:58.323Z,5.56
2023-11-07T21:13:02.660Z,5.66
2023-11-07T21:18:08.313Z,5.73
2023-11-07T21:23:12.156Z,5.66
2023-11-07T21:28:16.228Z,5.70
2023-11-07T21:33:21.579Z,5.58
2023-11-07T21:38:26.908Z,5.58
2023-11-07T21:43:31.152Z,5.50
2023-11-07T21:48:36.289Z,5.33
2023-11-07T21:53:40.083Z,5.33
2023-11-07T21:58:43.721Z,5.30
2023-11-07T22:03:48.928Z,5.22
2023-11-07T22:08:52.849Z,5.28
2023-11-07T22:13:56.679Z,5.21
2023-11-07T22:19:03.073Z,5.17
2023-11-07T22:24:07.554Z,5.25
2023-11-07T22:29:11.225Z,5.16
2023-11-07T22:34:16.448Z,5.09
2023-11-07T22:39:20.327Z,5.08
2023-11-07T22:44:24.100Z,5.13
2023-11-07T22:49:29.684Z,5.00
2023-11-07T22:54:33.727Z,5.04
2023-11-07T22:59:39.578Z,5.02
2023-11-07T23:04:46.071Z,4.97
2023-11-07T23:09:50.840Z,5.00
2023-11-07T23:14:54.829Z,4.98
2023-11-07T23:20:00.224Z,5.11
2023-11-07T23:25:04.250Z,4.97
2023-11-07T23:30:09.692Z,5.03
2023-11-07T23:35:15.553Z,4.99
2023-11-07T23:40:23.131Z,4.92
2023-11-07T23:45:27.157Z,4.89
2023-11-07T23:50:32.895Z,4.99
2023-11-07T23:55:36.744Z,4.81
